sensor_id;sensor_type;location;lat;lon;timestamp;P1;durP1;ratioP1;P2;durP2;ratioP2
6223;SDS011;3145;42.726;23.342;2023-03-11T00:01:31;12.43;;;10.20;;
6223;SDS011;3145;42.726;23.342;2023-03-11T00:03:58;9.23;;;8.37;;
6223;SDS011;3145;42.726;23.342;2023-03-11T00:06:25;8.50;;;7.73;;
6223;SDS011;3145;42.726;23.342;2023-03-11T00:08:52;13.23;;;11.07;;
6223;SDS011;3145;42.726;23.342;2023-03-11T00:11:20;10.00;;;7.27;;
6223;SDS011;3145;42.726;23.342;2023-03-11T00:13:46;9.57;;;5.90;;
6223;SDS011;3145;42.726;23.342;2023-03-11T00:16:13;5.90;;;5.47;;
6223;SDS011;3145;42.726;23.342;2023-03-11T00:18:40;5.30;;;4.90;;
6223;SDS011;3145;42.726;23.342;2023-03-11T00:21:11;3.97;;;3.67;;
6223;SDS011;3145;42.726;23.342;2023-03-11T00:23:40;3.60;;;3.37;;
6223;SDS011;3145;42.726;23.342;2023-03-11T00:26:07;5.87;;;5.30;;
6223;SDS011;3145;42.726;23.342;2023-03-11T00:28:35;5.90;;;5.40;;
6223;SDS011;3145;42.726;23.342;2023-03-11T00:31:02;7.50;;;6.73;;
6223;SDS011;3145;42.726;23.342;2023-03-11T00:33:29;6.57;;;6.07;;
6223;SDS011;3145;42.726;23.342;2023-03-11T00:35:56;6.97;;;5.20;;
6223;SDS011;3145;42.726;23.342;2023-03-11T00:38:22;4.23;;;3.37;;
6223;SDS011;3145;42.726;23.342;2023-03-11T00:40:49;4.27;;;3.87;;
6223;SDS011;3145;42.726;23.342;2023-03-11T00:43:16;2.50;;;2.40;;
6223;SDS011;3145;42.726;23.342;2023-03-11T00:45:44;3.87;;;3.10;;
6223;SDS011;3145;42.726;23.342;2023-03-11T00:48:11;3.13;;;2.93;;
6223;SDS011;3145;42.726;23.342;2023-03-11T00:50:39;5.70;;;3.33;;
6223;SDS011;3145;42.726;23.342;2023-03-11T00:53:05;3.03;;;2.83;;
6223;SDS011;3145;42.726;23.342;2023-03-11T00:55:33;3.30;;;2.43;;
6223;SDS011;3145;42.726;23.342;2023-03-11T00:58:01;3.20;;;3.00;;
6223;SDS011;3145;42.726;23.342;2023-03-11T01:00:29;3.63;;;3.33;;
6223;SDS011;3145;42.726;23.342;2023-03-11T01:02:58;3.77;;;3.47;;
6223;SDS011;3145;42.726;23.342;2023-03-11T01:05:26;4.93;;;4.30;;
6223;SDS011;3145;42.726;23.342;2023-03-11T01:07:54;3.67;;;3.07;;
6223;SDS011;3145;42.726;23.342;2023-03-11T01:10:21;3.00;;;2.80;;
6223;SDS011;3145;42.726;23.342;2023-03-11T01:12:48;2.60;;;2.40;;
6223;SDS011;3145;42.726;23.342;2023-03-11T01:15:16;3.53;;;3.33;;
6223;SDS011;3145;42.726;23.342;2023-03-11T01:17:45;3.50;;;3.20;;
6223;SDS011;3145;42.726;23.342;2023-03-11T01:20:14;3.00;;;2.80;;
6223;SDS011;3145;42.726;23.342;2023-03-11T01:22:41;2.87;;;2.67;;
6223;SDS011;3145;42.726;23.342;2023-03-11T01:25:09;3.90;;;3.30;;
6223;SDS011;3145;42.726;23.342;2023-03-11T01:27:37;3.03;;;2.73;;
6223;SDS011;3145;42.726;23.342;2023-03-11T01:30:04;4.33;;;2.70;;
6223;SDS011;3145;42.726;23.342;2023-03-11T01:32:32;8.07;;;7.03;;
6223;SDS011;3145;42.726;23.342;2023-03-11T01:34:59;3.90;;;3.70;;
6223;SDS011;3145;42.726;23.342;2023-03-11T01:37:27;6.33;;;5.17;;
6223;SDS011;3145;42.726;23.342;2023-03-11T01:39:54;5.73;;;5.23;;
6223;SDS011;3145;42.726;23.342;2023-03-11T01:42:20;5.93;;;5.37;;
6223;SDS011;3145;42.726;23.342;2023-03-11T01:44:47;5.13;;;4.73;;
6223;SDS011;3145;42.726;23.342;2023-03-11T01:50:00;5.53;;;5.03;;
6223;SDS011;3145;42.726;23.342;2023-03-11T01:52:30;5.40;;;4.97;;
6223;SDS011;3145;42.726;23.342;2023-03-11T01:54:56;5.47;;;4.97;;
6223;SDS011;3145;42.726;23.342;2023-03-11T01:57:23;6.70;;;6.20;;
6223;SDS011;3145;42.726;23.342;2023-03-11T01:59:51;6.20;;;5.30;;
6223;SDS011;3145;42.726;23.342;2023-03-11T02:02:22;5.57;;;5.23;;
6223;SDS011;3145;42.726;23.342;2023-03-11T02:04:53;6.07;;;4.70;;
6223;SDS011;3145;42.726;23.342;2023-03-11T02:07:20;5.10;;;4.70;;
6223;SDS011;3145;42.726;23.342;2023-03-11T02:09:48;5.00;;;4.50;;
6223;SDS011;3145;42.726;23.342;2023-03-11T02:12:15;5.47;;;5.00;;
6223;SDS011;3145;42.726;23.342;2023-03-11T02:14:43;4.90;;;4.47;;
6223;SDS011;3145;42.726;23.342;2023-03-11T02:17:12;6.97;;;5.17;;
6223;SDS011;3145;42.726;23.342;2023-03-11T02:19:43;5.23;;;4.90;;
6223;SDS011;3145;42.726;23.342;2023-03-11T02:22:21;5.63;;;5.13;;
6223;SDS011;3145;42.726;23.342;2023-03-11T02:24:52;5.03;;;4.50;;
6223;SDS011;3145;42.726;23.342;2023-03-11T02:27:26;4.73;;;4.30;;
6223;SDS011;3145;42.726;23.342;2023-03-11T02:29:53;5.33;;;4.93;;
6223;SDS011;3145;42.726;23.342;2023-03-11T02:32:21;4.50;;;4.20;;
6223;SDS011;3145;42.726;23.342;2023-03-11T02:34:49;5.37;;;4.87;;
6223;SDS011;3145;42.726;23.342;2023-03-11T02:37:16;4.87;;;4.47;;
6223;SDS011;3145;42.726;23.342;2023-03-11T02:39:44;4.40;;;4.10;;
6223;SDS011;3145;42.726;23.342;2023-03-11T02:42:13;19.33;;;17.43;;
6223;SDS011;3145;42.726;23.342;2023-03-11T02:44:44;39.67;;;34.93;;
6223;SDS011;3145;42.726;23.342;2023-03-11T02:47:17;15.57;;;12.10;;
6223;SDS011;3145;42.726;23.342;2023-03-11T02:49:44;21.13;;;13.77;;
6223;SDS011;3145;42.726;23.342;2023-03-11T02:52:10;62.17;;;44.03;;
6223;SDS011;3145;42.726;23.342;2023-03-11T02:54:37;43.57;;;32.70;;
6223;SDS011;3145;42.726;23.342;2023-03-11T02:57:04;7.97;;;7.27;;
6223;SDS011;3145;42.726;23.342;2023-03-11T02:59:31;4.80;;;4.33;;
6223;SDS011;3145;42.726;23.342;2023-03-11T03:01:59;5.23;;;3.30;;
6223;SDS011;3145;42.726;23.342;2023-03-11T03:04:25;2.77;;;2.57;;
6223;SDS011;3145;42.726;23.342;2023-03-11T03:06:52;8.80;;;5.50;;
6223;SDS011;3145;42.726;23.342;2023-03-11T03:09:19;10.23;;;6.70;;
6223;SDS011;3145;42.726;23.342;2023-03-11T03:11:45;11.77;;;7.67;;
6223;SDS011;3145;42.726;23.342;2023-03-11T03:14:12;12.57;;;8.10;;
6223;SDS011;3145;42.726;23.342;2023-03-11T03:16:39;7.30;;;6.60;;
6223;SDS011;3145;42.726;23.342;2023-03-11T03:19:07;9.17;;;6.63;;
6223;SDS011;3145;42.726;23.342;2023-03-11T03:21:34;7.07;;;4.93;;
6223;SDS011;3145;42.726;23.342;2023-03-11T03:24:00;5.47;;;3.40;;
6223;SDS011;3145;42.726;23.342;2023-03-11T03:26:27;3.73;;;2.87;;
6223;SDS011;3145;42.726;23.342;2023-03-11T03:28:54;5.07;;;2.60;;
6223;SDS011;3145;42.726;23.342;2023-03-11T03:31:21;3.60;;;2.67;;
6223;SDS011;3145;42.726;23.342;2023-03-11T03:33:48;2.70;;;2.50;;
6223;SDS011;3145;42.726;23.342;2023-03-11T03:36:16;2.60;;;2.40;;
6223;SDS011;3145;42.726;23.342;2023-03-11T03:38:42;3.67;;;3.47;;
6223;SDS011;3145;42.726;23.342;2023-03-11T03:41:11;5.50;;;4.60;;
6223;SDS011;3145;42.726;23.342;2023-03-11T03:43:39;4.20;;;3.90;;
6223;SDS011;3145;42.726;23.342;2023-03-11T03:46:05;5.17;;;3.90;;
6223;SDS011;3145;42.726;23.342;2023-03-11T03:48:32;4.43;;;4.03;;
6223;SDS011;3145;42.726;23.342;2023-03-11T03:51:01;5.63;;;5.07;;
6223;SDS011;3145;42.726;23.342;2023-03-11T03:53:31;5.80;;;4.43;;
6223;SDS011;3145;42.726;23.342;2023-03-11T03:56:01;5.20;;;3.80;;
6223;SDS011;3145;42.726;23.342;2023-03-11T03:58:28;4.57;;;4.17;;
6223;SDS011;3145;42.726;23.342;2023-03-11T04:00:55;4.63;;;4.23;;
6223;SDS011;3145;42.726;23.342;2023-03-11T04:03:22;4.37;;;4.07;;
6223;SDS011;3145;42.726;23.342;2023-03-11T04:05:48;3.33;;;3.13;;
6223;SDS011;3145;42.726;23.342;2023-03-11T04:08:15;3.47;;;3.23;;
6223;SDS011;3145;42.726;23.342;2023-03-11T04:10:43;3.83;;;3.13;;
6223;SDS011;3145;42.726;23.342;2023-03-11T04:13:10;3.30;;;3.10;;
6223;SDS011;3145;42.726;23.342;2023-03-11T04:15:37;3.30;;;3.10;;
6223;SDS011;3145;42.726;23.342;2023-03-11T04:18:04;3.30;;;3.10;;
6223;SDS011;3145;42.726;23.342;2023-03-11T04:20:31;3.50;;;3.20;;
6223;SDS011;3145;42.726;23.342;2023-03-11T04:22:58;2.73;;;2.50;;
6223;SDS011;3145;42.726;23.342;2023-03-11T04:25:24;4.43;;;2.70;;
6223;SDS011;3145;42.726;23.342;2023-03-11T04:27:52;2.10;;;2.00;;
6223;SDS011;3145;42.726;23.342;2023-03-11T04:30:19;2.10;;;2.00;;
6223;SDS011;3145;42.726;23.342;2023-03-11T04:32:46;2.27;;;2.07;;
6223;SDS011;3145;42.726;23.342;2023-03-11T04:35:12;3.10;;;2.90;;
6223;SDS011;3145;42.726;23.342;2023-03-11T04:37:39;2.13;;;2.03;;
6223;SDS011;3145;42.726;23.342;2023-03-11T04:40:06;2.00;;;1.90;;
6223;SDS011;3145;42.726;23.342;2023-03-11T04:42:35;1.83;;;1.73;;
6223;SDS011;3145;42.726;23.342;2023-03-11T04:45:05;2.30;;;2.20;;
6223;SDS011;3145;42.726;23.342;2023-03-11T04:47:32;2.17;;;2.07;;
6223;SDS011;3145;42.726;23.342;2023-03-11T04:49:59;2.97;;;2.77;;
6223;SDS011;3145;42.726;23.342;2023-03-11T04:52:26;2.30;;;2.20;;
6223;SDS011;3145;42.726;23.342;2023-03-11T04:54:53;2.33;;;2.23;;
6223;SDS011;3145;42.726;23.342;2023-03-11T04:57:19;2.30;;;2.20;;
6223;SDS011;3145;42.726;23.342;2023-03-11T04:59:46;2.20;;;2.07;;
6223;SDS011;3145;42.726;23.342;2023-03-11T05:02:14;1.97;;;1.87;;
6223;SDS011;3145;42.726;23.342;2023-03-11T05:04:41;3.67;;;3.47;;
6223;SDS011;3145;42.726;23.342;2023-03-11T05:07:09;2.00;;;1.90;;
6223;SDS011;3145;42.726;23.342;2023-03-11T05:09:35;3.07;;;2.03;;
6223;SDS011;3145;42.726;23.342;2023-03-11T05:12:03;2.63;;;1.60;;
6223;SDS011;3145;42.726;23.342;2023-03-11T05:14:30;1.60;;;1.50;;
6223;SDS011;3145;42.726;23.342;2023-03-11T05:16:57;1.90;;;1.70;;
6223;SDS011;3145;42.726;23.342;2023-03-11T05:19:25;1.40;;;1.30;;
6223;SDS011;3145;42.726;23.342;2023-03-11T05:21:59;1.77;;;1.67;;
6223;SDS011;3145;42.726;23.342;2023-03-11T05:24:26;2.27;;;1.80;;
6223;SDS011;3145;42.726;23.342;2023-03-11T05:26:53;2.33;;;2.13;;
6223;SDS011;3145;42.726;23.342;2023-03-11T05:29:20;1.60;;;1.50;;
6223;SDS011;3145;42.726;23.342;2023-03-11T05:31:47;2.10;;;2.00;;
6223;SDS011;3145;42.726;23.342;2023-03-11T05:34:14;2.90;;;1.60;;
6223;SDS011;3145;42.726;23.342;2023-03-11T05:36:42;1.70;;;1.60;;
6223;SDS011;3145;42.726;23.342;2023-03-11T05:39:09;3.47;;;3.00;;
6223;SDS011;3145;42.726;23.342;2023-03-11T05:41:36;2.00;;;1.90;;
6223;SDS011;3145;42.726;23.342;2023-03-11T05:44:04;3.93;;;3.50;;
6223;SDS011;3145;42.726;23.342;2023-03-11T05:46:30;6.27;;;4.90;;
6223;SDS011;3145;42.726;23.342;2023-03-11T05:48:57;4.50;;;4.07;;
6223;SDS011;3145;42.726;23.342;2023-03-11T05:51:24;2.83;;;2.63;;
6223;SDS011;3145;42.726;23.342;2023-03-11T05:53:53;3.30;;;3.00;;
6223;SDS011;3145;42.726;23.342;2023-03-11T05:56:20;4.40;;;2.47;;
6223;SDS011;3145;42.726;23.342;2023-03-11T05:58:48;4.33;;;3.70;;
6223;SDS011;3145;42.726;23.342;2023-03-11T06:01:16;11.07;;;9.97;;
6223;SDS011;3145;42.726;23.342;2023-03-11T06:03:44;3.77;;;3.43;;
6223;SDS011;3145;42.726;23.342;2023-03-11T06:06:11;3.07;;;2.87;;
6223;SDS011;3145;42.726;23.342;2023-03-11T06:08:39;3.90;;;3.60;;
6223;SDS011;3145;42.726;23.342;2023-03-11T06:11:11;2.93;;;2.73;;
6223;SDS011;3145;42.726;23.342;2023-03-11T06:13:38;3.53;;;3.23;;
6223;SDS011;3145;42.726;23.342;2023-03-11T06:16:05;3.50;;;3.30;;
6223;SDS011;3145;42.726;23.342;2023-03-11T06:18:32;3.33;;;3.13;;
6223;SDS011;3145;42.726;23.342;2023-03-11T06:21:00;3.53;;;3.23;;
6223;SDS011;3145;42.726;23.342;2023-03-11T06:23:27;3.73;;;3.40;;
6223;SDS011;3145;42.726;23.342;2023-03-11T06:25:55;3.97;;;3.67;;
6223;SDS011;3145;42.726;23.342;2023-03-11T06:28:24;3.50;;;3.20;;
6223;SDS011;3145;42.726;23.342;2023-03-11T06:30:51;4.83;;;2.70;;
6223;SDS011;3145;42.726;23.342;2023-03-11T06:33:21;2.60;;;2.40;;
6223;SDS011;3145;42.726;23.342;2023-03-11T06:35:55;2.90;;;2.50;;
6223;SDS011;3145;42.726;23.342;2023-03-11T06:38:23;3.80;;;3.50;;
6223;SDS011;3145;42.726;23.342;2023-03-11T06:40:49;5.00;;;4.60;;
6223;SDS011;3145;42.726;23.342;2023-03-11T06:43:16;10.30;;;4.00;;
6223;SDS011;3145;42.726;23.342;2023-03-11T06:45:45;4.40;;;4.00;;
6223;SDS011;3145;42.726;23.342;2023-03-11T06:48:11;4.20;;;3.90;;
6223;SDS011;3145;42.726;23.342;2023-03-11T06:50:38;6.97;;;6.40;;
6223;SDS011;3145;42.726;23.342;2023-03-11T06:53:05;8.63;;;7.73;;
6223;SDS011;3145;42.726;23.342;2023-03-11T06:55:32;7.53;;;6.83;;
6223;SDS011;3145;42.726;23.342;2023-03-11T06:57:59;5.90;;;5.40;;
6223;SDS011;3145;42.726;23.342;2023-03-11T07:00:26;5.37;;;4.90;;
6223;SDS011;3145;42.726;23.342;2023-03-11T07:02:56;5.37;;;4.97;;
6223;SDS011;3145;42.726;23.342;2023-03-11T07:05:23;4.80;;;4.40;;
6223;SDS011;3145;42.726;23.342;2023-03-11T07:07:51;5.50;;;4.37;;
6223;SDS011;3145;42.726;23.342;2023-03-11T07:10:19;4.37;;;4.00;;
6223;SDS011;3145;42.726;23.342;2023-03-11T07:12:45;3.70;;;3.40;;
6223;SDS011;3145;42.726;23.342;2023-03-11T07:15:12;3.90;;;3.60;;
6223;SDS011;3145;42.726;23.342;2023-03-11T07:17:39;4.57;;;3.20;;
6223;SDS011;3145;42.726;23.342;2023-03-11T07:20:08;4.03;;;3.30;;
6223;SDS011;3145;42.726;23.342;2023-03-11T07:22:36;3.50;;;3.10;;
6223;SDS011;3145;42.726;23.342;2023-03-11T07:25:03;5.00;;;3.70;;
6223;SDS011;3145;42.726;23.342;2023-03-11T07:27:31;4.97;;;3.40;;
6223;SDS011;3145;42.726;23.342;2023-03-11T07:29:59;4.87;;;3.30;;
6223;SDS011;3145;42.726;23.342;2023-03-11T07:32:26;3.30;;;3.00;;
6223;SDS011;3145;42.726;23.342;2023-03-11T07:34:53;3.67;;;3.27;;
6223;SDS011;3145;42.726;23.342;2023-03-11T07:37:21;3.27;;;2.87;;
6223;SDS011;3145;42.726;23.342;2023-03-11T07:39:47;3.23;;;2.93;;
6223;SDS011;3145;42.726;23.342;2023-03-11T07:42:14;6.40;;;2.83;;
6223;SDS011;3145;42.726;23.342;2023-03-11T07:44:41;3.50;;;2.80;;
6223;SDS011;3145;42.726;23.342;2023-03-11T07:47:08;1.73;;;1.63;;
6223;SDS011;3145;42.726;23.342;2023-03-11T07:49:35;2.10;;;1.93;;
6223;SDS011;3145;42.726;23.342;2023-03-11T07:52:01;2.73;;;1.77;;
6223;SDS011;3145;42.726;23.342;2023-03-11T07:54:30;1.70;;;1.60;;
6223;SDS011;3145;42.726;23.342;2023-03-11T07:56:56;3.33;;;2.20;;
6223;SDS011;3145;42.726;23.342;2023-03-11T07:59:23;2.67;;;1.30;;
6223;SDS011;3145;42.726;23.342;2023-03-11T08:01:50;1.33;;;1.23;;
6223;SDS011;3145;42.726;23.342;2023-03-11T08:04:17;1.63;;;1.53;;
6223;SDS011;3145;42.726;23.342;2023-03-11T08:06:44;3.33;;;2.77;;
6223;SDS011;3145;42.726;23.342;2023-03-11T08:09:12;1.40;;;1.30;;
6223;SDS011;3145;42.726;23.342;2023-03-11T08:11:40;2.17;;;1.60;;
6223;SDS011;3145;42.726;23.342;2023-03-11T08:14:07;1.20;;;1.07;;
6223;SDS011;3145;42.726;23.342;2023-03-11T08:16:34;2.80;;;0.90;;
6223;SDS011;3145;42.726;23.342;2023-03-11T08:19:01;1.30;;;0.97;;
6223;SDS011;3145;42.726;23.342;2023-03-11T08:21:29;0.70;;;0.70;;
6223;SDS011;3145;42.726;23.342;2023-03-11T08:23:56;1.23;;;1.03;;
6223;SDS011;3145;42.726;23.342;2023-03-11T08:26:24;0.80;;;0.80;;
6223;SDS011;3145;42.726;23.342;2023-03-11T08:28:52;2.27;;;0.80;;
6223;SDS011;3145;42.726;23.342;2023-03-11T08:31:21;1.03;;;0.93;;
6223;SDS011;3145;42.726;23.342;2023-03-11T08:33:49;1.00;;;0.83;;
6223;SDS011;3145;42.726;23.342;2023-03-11T08:36:18;1.60;;;1.00;;
6223;SDS011;3145;42.726;23.342;2023-03-11T08:38:46;2.13;;;1.10;;
6223;SDS011;3145;42.726;23.342;2023-03-11T08:41:13;1.20;;;0.80;;
6223;SDS011;3145;42.726;23.342;2023-03-11T08:43:41;0.60;;;0.60;;
6223;SDS011;3145;42.726;23.342;2023-03-11T08:46:12;0.70;;;0.70;;
6223;SDS011;3145;42.726;23.342;2023-03-11T08:48:40;0.97;;;0.60;;
6223;SDS011;3145;42.726;23.342;2023-03-11T08:51:08;1.13;;;0.90;;
6223;SDS011;3145;42.726;23.342;2023-03-11T08:53:36;1.00;;;0.90;;
6223;SDS011;3145;42.726;23.342;2023-03-11T08:56:03;5.93;;;1.07;;
6223;SDS011;3145;42.726;23.342;2023-03-11T08:58:30;1.73;;;1.37;;
6223;SDS011;3145;42.726;23.342;2023-03-11T09:00:57;1.03;;;1.03;;
6223;SDS011;3145;42.726;23.342;2023-03-11T09:03:25;1.63;;;1.53;;
6223;SDS011;3145;42.726;23.342;2023-03-11T09:05:56;2.00;;;1.27;;
6223;SDS011;3145;42.726;23.342;2023-03-11T09:08:24;0.90;;;0.90;;
6223;SDS011;3145;42.726;23.342;2023-03-11T09:10:50;1.10;;;1.00;;
6223;SDS011;3145;42.726;23.342;2023-03-11T09:13:17;3.00;;;1.40;;
6223;SDS011;3145;42.726;23.342;2023-03-11T09:15:44;2.17;;;1.10;;
6223;SDS011;3145;42.726;23.342;2023-03-11T09:18:11;7.00;;;1.30;;
6223;SDS011;3145;42.726;23.342;2023-03-11T09:20:45;1.13;;;1.07;;
6223;SDS011;3145;42.726;23.342;2023-03-11T09:23:13;1.40;;;1.30;;
6223;SDS011;3145;42.726;23.342;2023-03-11T09:25:41;1.47;;;1.37;;
6223;SDS011;3145;42.726;23.342;2023-03-11T09:28:07;2.13;;;0.90;;
6223;SDS011;3145;42.726;23.342;2023-03-11T09:30:34;0.93;;;0.90;;
6223;SDS011;3145;42.726;23.342;2023-03-11T09:33:01;1.10;;;1.00;;
6223;SDS011;3145;42.726;23.342;2023-03-11T09:35:29;0.80;;;0.70;;
6223;SDS011;3145;42.726;23.342;2023-03-11T09:37:57;2.17;;;0.90;;
6223;SDS011;3145;42.726;23.342;2023-03-11T09:40:25;3.77;;;1.03;;
6223;SDS011;3145;42.726;23.342;2023-03-11T09:43:02;1.23;;;1.13;;
6223;SDS011;3145;42.726;23.342;2023-03-11T09:45:37;2.03;;;1.07;;
6223;SDS011;3145;42.726;23.342;2023-03-11T09:48:12;2.37;;;1.10;;
6223;SDS011;3145;42.726;23.342;2023-03-11T09:50:47;1.93;;;1.20;;
6223;SDS011;3145;42.726;23.342;2023-03-11T09:53:27;1.97;;;1.10;;
6223;SDS011;3145;42.726;23.342;2023-03-11T09:56:00;1.70;;;1.60;;
6223;SDS011;3145;42.726;23.342;2023-03-11T09:58:34;1.30;;;1.20;;
6223;SDS011;3145;42.726;23.342;2023-03-11T10:01:04;2.37;;;1.20;;
6223;SDS011;3145;42.726;23.342;2023-03-11T10:03:40;0.73;;;0.73;;
6223;SDS011;3145;42.726;23.342;2023-03-11T10:06:11;1.67;;;0.80;;
6223;SDS011;3145;42.726;23.342;2023-03-11T10:08:43;0.97;;;0.90;;
6223;SDS011;3145;42.726;23.342;2023-03-11T10:11:16;1.47;;;0.90;;
6223;SDS011;3145;42.726;23.342;2023-03-11T10:13:56;2.00;;;1.03;;
6223;SDS011;3145;42.726;23.342;2023-03-11T10:16:35;1.07;;;0.97;;
6223;SDS011;3145;42.726;23.342;2023-03-11T10:19:10;1.20;;;1.10;;
6223;SDS011;3145;42.726;23.342;2023-03-11T10:21:48;1.90;;;1.10;;
6223;SDS011;3145;42.726;23.342;2023-03-11T10:24:35;0.90;;;0.90;;
6223;SDS011;3145;42.726;23.342;2023-03-11T10:27:12;3.03;;;1.30;;
6223;SDS011;3145;42.726;23.342;2023-03-11T10:29:44;1.83;;;1.50;;
6223;SDS011;3145;42.726;23.342;2023-03-11T10:32:18;2.97;;;1.80;;
6223;SDS011;3145;42.726;23.342;2023-03-11T10:34:49;4.80;;;2.00;;
6223;SDS011;3145;42.726;23.342;2023-03-11T10:37:23;2.73;;;1.40;;
6223;SDS011;3145;42.726;23.342;2023-03-11T10:39:53;1.90;;;1.70;;
6223;SDS011;3145;42.726;23.342;2023-03-11T10:42:23;1.37;;;1.27;;
6223;SDS011;3145;42.726;23.342;2023-03-11T10:44:53;2.33;;;1.43;;
6223;SDS011;3145;42.726;23.342;2023-03-11T10:47:21;1.80;;;1.70;;
6223;SDS011;3145;42.726;23.342;2023-03-11T10:49:50;2.47;;;2.20;;
6223;SDS011;3145;42.726;23.342;2023-03-11T10:52:18;2.60;;;2.40;;
6223;SDS011;3145;42.726;23.342;2023-03-11T10:54:46;1.60;;;1.47;;
6223;SDS011;3145;42.726;23.342;2023-03-11T10:57:22;3.07;;;1.77;;
6223;SDS011;3145;42.726;23.342;2023-03-11T10:59:52;1.70;;;1.60;;
6223;SDS011;3145;42.726;23.342;2023-03-11T11:02:24;3.07;;;2.20;;
6223;SDS011;3145;42.726;23.342;2023-03-11T11:07:49;2.33;;;1.60;;
6223;SDS011;3145;42.726;23.342;2023-03-11T11:10:17;3.70;;;1.23;;
6223;SDS011;3145;42.726;23.342;2023-03-11T11:12:51;2.63;;;2.03;;
6223;SDS011;3145;42.726;23.342;2023-03-11T11:15:20;3.83;;;3.50;;
6223;SDS011;3145;42.726;23.342;2023-03-11T11:17:48;6.27;;;2.83;;
6223;SDS011;3145;42.726;23.342;2023-03-11T11:20:17;7.17;;;2.77;;
6223;SDS011;3145;42.726;23.342;2023-03-11T11:22:49;4.70;;;2.90;;
6223;SDS011;3145;42.726;23.342;2023-03-11T11:25:25;2.90;;;2.60;;
6223;SDS011;3145;42.726;23.342;2023-03-11T11:27:56;2.33;;;2.13;;
6223;SDS011;3145;42.726;23.342;2023-03-11T11:30:24;2.40;;;1.50;;
6223;SDS011;3145;42.726;23.342;2023-03-11T11:32:52;3.00;;;2.57;;
6223;SDS011;3145;42.726;23.342;2023-03-11T11:35:20;3.83;;;1.53;;
6223;SDS011;3145;42.726;23.342;2023-03-11T11:37:49;2.43;;;1.50;;
6223;SDS011;3145;42.726;23.342;2023-03-11T11:40:22;1.73;;;1.53;;
6223;SDS011;3145;42.726;23.342;2023-03-11T11:42:56;2.40;;;1.23;;
6223;SDS011;3145;42.726;23.342;2023-03-11T11:45:33;1.30;;;1.20;;
6223;SDS011;3145;42.726;23.342;2023-03-11T11:48:04;1.20;;;1.10;;
6223;SDS011;3145;42.726;23.342;2023-03-11T11:50:40;1.27;;;1.17;;
6223;SDS011;3145;42.726;23.342;2023-03-11T11:53:15;1.83;;;1.63;;
6223;SDS011;3145;42.726;23.342;2023-03-11T11:55:50;3.60;;;2.20;;
6223;SDS011;3145;42.726;23.342;2023-03-11T11:58:19;1.83;;;1.53;;
6223;SDS011;3145;42.726;23.342;2023-03-11T12:00:53;2.53;;;1.80;;
6223;SDS011;3145;42.726;23.342;2023-03-11T12:03:38;1.90;;;1.70;;
6223;SDS011;3145;42.726;23.342;2023-03-11T12:06:19;2.73;;;1.67;;
6223;SDS011;3145;42.726;23.342;2023-03-11T12:08:54;2.40;;;1.50;;
6223;SDS011;3145;42.726;23.342;2023-03-11T12:11:33;1.83;;;1.50;;
6223;SDS011;3145;42.726;23.342;2023-03-11T12:14:08;1.53;;;1.20;;
6223;SDS011;3145;42.726;23.342;2023-03-11T12:16:43;1.73;;;1.60;;
6223;SDS011;3145;42.726;23.342;2023-03-11T12:19:19;1.27;;;1.00;;
6223;SDS011;3145;42.726;23.342;2023-03-11T12:22:00;3.73;;;1.80;;
6223;SDS011;3145;42.726;23.342;2023-03-11T12:24:51;1.60;;;1.50;;
6223;SDS011;3145;42.726;23.342;2023-03-11T12:27:40;1.13;;;1.00;;
6223;SDS011;3145;42.726;23.342;2023-03-11T12:30:13;1.53;;;1.40;;
6223;SDS011;3145;42.726;23.342;2023-03-11T12:32:44;1.00;;;1.00;;
6223;SDS011;3145;42.726;23.342;2023-03-11T12:35:18;2.73;;;1.50;;
6223;SDS011;3145;42.726;23.342;2023-03-11T12:37:54;1.87;;;1.20;;
6223;SDS011;3145;42.726;23.342;2023-03-11T12:40:46;1.20;;;1.10;;
6223;SDS011;3145;42.726;23.342;2023-03-11T12:43:24;1.60;;;1.50;;
6223;SDS011;3145;42.726;23.342;2023-03-11T12:45:55;2.23;;;1.60;;
6223;SDS011;3145;42.726;23.342;2023-03-11T12:48:24;1.67;;;1.57;;
6223;SDS011;3145;42.726;23.342;2023-03-11T12:50:58;2.17;;;1.80;;
6223;SDS011;3145;42.726;23.342;2023-03-11T12:53:40;4.17;;;1.40;;
6223;SDS011;3145;42.726;23.342;2023-03-11T12:56:09;1.70;;;1.30;;
6223;SDS011;3145;42.726;23.342;2023-03-11T13:01:45;2.20;;;1.63;;
6223;SDS011;3145;42.726;23.342;2023-03-11T13:04:37;1.30;;;1.20;;
6223;SDS011;3145;42.726;23.342;2023-03-11T13:10:12;2.83;;;1.60;;
6223;SDS011;3145;42.726;23.342;2023-03-11T13:12:42;1.67;;;1.57;;
6223;SDS011;3145;42.726;23.342;2023-03-11T13:18:12;9.30;;;3.57;;
6223;SDS011;3145;42.726;23.342;2023-03-11T13:20:43;2.93;;;2.60;;
6223;SDS011;3145;42.726;23.342;2023-03-11T13:23:20;2.60;;;2.40;;
6223;SDS011;3145;42.726;23.342;2023-03-11T13:26:05;2.67;;;1.80;;
6223;SDS011;3145;42.726;23.342;2023-03-11T13:31:41;3.87;;;3.43;;
6223;SDS011;3145;42.726;23.342;2023-03-11T13:34:19;4.13;;;3.60;;
6223;SDS011;3145;42.726;23.342;2023-03-11T13:36:55;8.93;;;5.73;;
6223;SDS011;3145;42.726;23.342;2023-03-11T13:39:41;2.50;;;2.30;;
6223;SDS011;3145;42.726;23.342;2023-03-11T13:42:16;4.70;;;4.30;;
6223;SDS011;3145;42.726;23.342;2023-03-11T13:44:49;4.17;;;3.60;;
6223;SDS011;3145;42.726;23.342;2023-03-11T13:47:17;2.07;;;1.97;;
6223;SDS011;3145;42.726;23.342;2023-03-11T13:49:48;2.20;;;1.30;;
6223;SDS011;3145;42.726;23.342;2023-03-11T13:52:21;2.30;;;1.83;;
6223;SDS011;3145;42.726;23.342;2023-03-11T13:54:52;2.57;;;2.10;;
6223;SDS011;3145;42.726;23.342;2023-03-11T13:57:27;2.60;;;2.40;;
6223;SDS011;3145;42.726;23.342;2023-03-11T14:00:04;4.43;;;2.80;;
6223;SDS011;3145;42.726;23.342;2023-03-11T14:02:45;3.40;;;3.20;;
6223;SDS011;3145;42.726;23.342;2023-03-11T14:05:18;9.50;;;5.53;;
6223;SDS011;3145;42.726;23.342;2023-03-11T14:07:48;6.77;;;5.87;;
6223;SDS011;3145;42.726;23.342;2023-03-11T14:10:16;9.20;;;6.03;;
6223;SDS011;3145;42.726;23.342;2023-03-11T14:15:50;9.73;;;6.50;;
6223;SDS011;3145;42.726;23.342;2023-03-11T14:18:26;4.40;;;4.00;;
6223;SDS011;3145;42.726;23.342;2023-03-11T14:20:57;4.73;;;4.07;;
6223;SDS011;3145;42.726;23.342;2023-03-11T14:23:26;3.70;;;3.40;;
6223;SDS011;3145;42.726;23.342;2023-03-11T14:25:57;5.53;;;4.87;;
6223;SDS011;3145;42.726;23.342;2023-03-11T14:28:25;5.37;;;4.77;;
6223;SDS011;3145;42.726;23.342;2023-03-11T14:30:56;4.03;;;3.63;;
6223;SDS011;3145;42.726;23.342;2023-03-11T14:33:25;3.70;;;3.40;;
6223;SDS011;3145;42.726;23.342;2023-03-11T14:35:53;3.80;;;3.40;;
6223;SDS011;3145;42.726;23.342;2023-03-11T14:38:23;4.63;;;4.23;;
6223;SDS011;3145;42.726;23.342;2023-03-11T14:40:51;4.97;;;3.80;;
6223;SDS011;3145;42.726;23.342;2023-03-11T14:43:20;3.20;;;3.00;;
6223;SDS011;3145;42.726;23.342;2023-03-11T14:45:47;3.57;;;3.00;;
6223;SDS011;3145;42.726;23.342;2023-03-11T14:48:17;6.13;;;4.13;;
6223;SDS011;3145;42.726;23.342;2023-03-11T14:50:48;9.33;;;6.93;;
6223;SDS011;3145;42.726;23.342;2023-03-11T14:53:16;8.60;;;6.87;;
6223;SDS011;3145;42.726;23.342;2023-03-11T14:55:49;8.37;;;6.60;;
6223;SDS011;3145;42.726;23.342;2023-03-11T14:58:22;8.00;;;5.90;;
6223;SDS011;3145;42.726;23.342;2023-03-11T15:00:54;6.50;;;5.90;;
6223;SDS011;3145;42.726;23.342;2023-03-11T15:03:26;9.33;;;6.43;;
6223;SDS011;3145;42.726;23.342;2023-03-11T15:05:56;6.90;;;6.17;;
6223;SDS011;3145;42.726;23.342;2023-03-11T15:08:27;7.40;;;6.80;;
6223;SDS011;3145;42.726;23.342;2023-03-11T15:11:02;11.93;;;6.57;;
6223;SDS011;3145;42.726;23.342;2023-03-11T15:13:32;5.70;;;5.20;;
6223;SDS011;3145;42.726;23.342;2023-03-11T15:15:59;4.73;;;4.33;;
6223;SDS011;3145;42.726;23.342;2023-03-11T15:18:27;4.87;;;4.47;;
6223;SDS011;3145;42.726;23.342;2023-03-11T15:21:00;5.47;;;4.50;;
6223;SDS011;3145;42.726;23.342;2023-03-11T15:23:30;8.33;;;5.20;;
6223;SDS011;3145;42.726;23.342;2023-03-11T15:25:59;9.53;;;5.70;;
6223;SDS011;3145;42.726;23.342;2023-03-11T15:28:28;4.80;;;4.50;;
6223;SDS011;3145;42.726;23.342;2023-03-11T15:33:43;11.40;;;6.93;;
6223;SDS011;3145;42.726;23.342;2023-03-11T15:36:27;9.60;;;7.20;;
6223;SDS011;3145;42.726;23.342;2023-03-11T15:39:05;13.23;;;8.30;;